sensor_id;sensor_type;location;lat;lon;timestamp;temperature;humidity
21123;DHT22;10719;48.130;11.630;2022-10-29T00:01:49;13.10;99.90
21123;DHT22;10719;48.130;11.630;2022-10-29T00:04:14;13.10;99.90
21123;DHT22;10719;48.130;11.630;2022-10-29T00:06:40;13.00;99.90
21123;DHT22;10719;48.130;11.630;2022-10-29T00:09:06;13.00;99.90
21123;DHT22;10719;48.130;11.630;2022-10-29T00:11:32;12.80;99.90
21123;DHT22;10719;48.130;11.630;2022-10-29T00:13:59;12.80;99.90
21123;DHT22;10719;48.130;11.630;2022-10-29T00:16:33;12.80;99.90
21123;DHT22;10719;48.130;11.630;2022-10-29T00:18:59;12.90;99.90
21123;DHT22;10719;48.130;11.630;2022-10-29T00:21:25;12.90;99.90
21123;DHT22;10719;48.130;11.630;2022-10-29T00:23:51;13.00;99.90
21123;DHT22;10719;48.130;11.630;2022-10-29T00:26:19;13.00;99.90
21123;DHT22;10719;48.130;11.630;2022-10-29T00:28:45;13.20;99.90
21123;DHT22;10719;48.130;11.630;2022-10-29T00:31:13;13.20;99.90
21123;DHT22;10719;48.130;11.630;2022-10-29T00:33:40;13.20;99.90
21123;DHT22;10719;48.130;11.630;2022-10-29T00:36:11;13.20;99.90
21123;DHT22;10719;48.130;11.630;2022-10-29T00:38:37;13.20;99.90
21123;DHT22;10719;48.130;11.630;2022-10-29T00:41:04;13.20;99.90
21123;DHT22;10719;48.130;11.630;2022-10-29T00:43:35;13.20;99.90
21123;DHT22;10719;48.130;11.630;2022-10-29T00:46:13;13.20;99.90
21123;DHT22;10719;48.130;11.630;2022-10-29T00:48:43;13.10;99.90
21123;DHT22;10719;48.130;11.630;2022-10-29T00:51:12;13.10;99.90
21123;DHT22;10719;48.130;11.630;2022-10-29T00:53:41;13.10;99.90
21123;DHT22;10719;48.130;11.630;2022-10-29T00:56:07;13.00;99.90
21123;DHT22;10719;48.130;11.630;2022-10-29T00:58:33;12.90;99.90
21123;DHT22;10719;48.130;11.630;2022-10-29T01:01:00;12.90;99.90
21123;DHT22;10719;48.130;11.630;2022-10-29T01:03:25;12.80;99.90
21123;DHT22;10719;48.130;11.630;2022-10-29T01:05:51;12.80;99.90
21123;DHT22;10719;48.130;11.630;2022-10-29T01:08:17;12.70;99.90
21123;DHT22;10719;48.130;11.630;2022-10-29T01:21:40;12.30;99.90
21123;DHT22;10719;48.130;11.630;2022-10-29T01:24:26;12.30;99.90
21123;DHT22;10719;48.130;11.630;2022-10-29T01:30:03;12.10;99.90
21123;DHT22;10719;48.130;11.630;2022-10-29T01:32:42;12.10;99.90
21123;DHT22;10719;48.130;11.630;2022-10-29T01:35:16;12.10;99.90
21123;DHT22;10719;48.130;11.630;2022-10-29T01:43:29;11.90;99.90
21123;DHT22;10719;48.130;11.630;2022-10-29T01:46:01;11.90;99.90
21123;DHT22;10719;48.130;11.630;2022-10-29T01:48:31;11.90;99.90
21123;DHT22;10719;48.130;11.630;2022-10-29T01:51:01;12.10;99.90
21123;DHT22;10719;48.130;11.630;2022-10-29T01:53:29;12.10;99.90
21123;DHT22;10719;48.130;11.630;2022-10-29T01:55:55;12.00;99.90
21123;DHT22;10719;48.130;11.630;2022-10-29T01:58:22;11.90;99.90
21123;DHT22;10719;48.130;11.630;2022-10-29T02:01:06;11.90;99.90
21123;DHT22;10719;48.130;11.630;2022-10-29T02:03:48;11.80;99.90
21123;DHT22;10719;48.130;11.630;2022-10-29T02:06:37;11.70;99.90
21123;DHT22;10719;48.130;11.630;2022-10-29T02:09:16;11.70;99.90
21123;DHT22;10719;48.130;11.630;2022-10-29T02:15:04;11.60;99.90
21123;DHT22;10719;48.130;11.630;2022-10-29T02:17:31;11.60;99.90
21123;DHT22;10719;48.130;11.630;2022-10-29T02:19:57;11.60;99.90
21123;DHT22;10719;48.130;11.630;2022-10-29T02:22:23;11.50;99.90
21123;DHT22;10719;48.130;11.630;2022-10-29T02:24:49;11.60;99.90
21123;DHT22;10719;48.130;11.630;2022-10-29T02:27:14;11.60;99.90
21123;DHT22;10719;48.130;11.630;2022-10-29T02:29:40;11.60;99.90
21123;DHT22;10719;48.130;11.630;2022-10-29T02:32:05;11.60;99.90
21123;DHT22;10719;48.130;11.630;2022-10-29T02:34:31;11.60;99.90
21123;DHT22;10719;48.130;11.630;2022-10-29T02:36:56;11.50;99.90
21123;DHT22;10719;48.130;11.630;2022-10-29T02:39:22;11.50;99.90
21123;DHT22;10719;48.130;11.630;2022-10-29T02:41:47;11.50;99.90
21123;DHT22;10719;48.130;11.630;2022-10-29T02:44:13;11.40;99.90
21123;DHT22;10719;48.130;11.630;2022-10-29T02:46:39;11.40;99.90
21123;DHT22;10719;48.130;11.630;2022-10-29T02:49:07;11.40;99.90
21123;DHT22;10719;48.130;11.630;2022-10-29T02:51:33;11.40;99.90
21123;DHT22;10719;48.130;11.630;2022-10-29T02:53:58;11.40;99.90
21123;DHT22;10719;48.130;11.630;2022-10-29T02:56:24;11.40;99.90
21123;DHT22;10719;48.130;11.630;2022-10-29T02:58:50;11.40;99.90
21123;DHT22;10719;48.130;11.630;2022-10-29T03:01:15;11.40;99.90
21123;DHT22;10719;48.130;11.630;2022-10-29T03:03:41;11.40;99.90
21123;DHT22;10719;48.130;11.630;2022-10-29T03:06:14;11.40;99.90
21123;DHT22;10719;48.130;11.630;2022-10-29T03:08:40;11.40;99.90
21123;DHT22;10719;48.130;11.630;2022-10-29T03:11:06;11.40;99.90
21123;DHT22;10719;48.130;11.630;2022-10-29T03:13:32;11.40;99.90
21123;DHT22;10719;48.130;11.630;2022-10-29T03:15:57;11.40;99.90
21123;DHT22;10719;48.130;11.630;2022-10-29T03:18:23;11.40;99.90
21123;DHT22;10719;48.130;11.630;2022-10-29T03:20:49;11.50;99.90
21123;DHT22;10719;48.130;11.630;2022-10-29T03:23:14;11.40;99.90
21123;DHT22;10719;48.130;11.630;2022-10-29T03:25:40;11.40;99.90
21123;DHT22;10719;48.130;11.630;2022-10-29T03:28:05;11.40;99.90
21123;DHT22;10719;48.130;11.630;2022-10-29T03:30:31;11.40;99.90
21123;DHT22;10719;48.130;11.630;2022-10-29T03:32:57;11.40;99.90
21123;DHT22;10719;48.130;11.630;2022-10-29T03:35:22;11.40;99.90
21123;DHT22;10719;48.130;11.630;2022-10-29T03:37:49;11.50;99.90
21123;DHT22;10719;48.130;11.630;2022-10-29T03:40:15;11.60;99.90
21123;DHT22;10719;48.130;11.630;2022-10-29T03:42:40;11.70;99.90
21123;DHT22;10719;48.130;11.630;2022-10-29T03:45:07;11.90;99.90
21123;DHT22;10719;48.130;11.630;2022-10-29T03:47:33;12.10;99.90
21123;DHT22;10719;48.130;11.630;2022-10-29T03:49:59;12.00;99.90
21123;DHT22;10719;48.130;11.630;2022-10-29T03:52:24;12.00;99.90
21123;DHT22;10719;48.130;11.630;2022-10-29T03:54:50;12.00;99.90
21123;DHT22;10719;48.130;11.630;2022-10-29T03:57:15;11.90;99.90
21123;DHT22;10719;48.130;11.630;2022-10-29T03:59:41;11.90;99.90
21123;DHT22;10719;48.130;11.630;2022-10-29T04:02:07;11.90;99.90
21123;DHT22;10719;48.130;11.630;2022-10-29T04:04:33;11.90;99.90
21123;DHT22;10719;48.130;11.630;2022-10-29T04:06:58;11.90;99.90
21123;DHT22;10719;48.130;11.630;2022-10-29T04:09:24;11.90;99.90
21123;DHT22;10719;48.130;11.630;2022-10-29T04:11:49;11.90;99.90
21123;DHT22;10719;48.130;11.630;2022-10-29T04:14:15;11.80;99.90
21123;DHT22;10719;48.130;11.630;2022-10-29T04:16:40;11.90;99.90
21123;DHT22;10719;48.130;11.630;2022-10-29T04:19:06;11.90;99.90
21123;DHT22;10719;48.130;11.630;2022-10-29T04:21:32;11.90;99.90
21123;DHT22;10719;48.130;11.630;2022-10-29T04:23:57;12.00;99.90
21123;DHT22;10719;48.130;11.630;2022-10-29T04:26:23;12.00;99.90
21123;DHT22;10719;48.130;11.630;2022-10-29T04:28:49;12.10;99.90
21123;DHT22;10719;48.130;11.630;2022-10-29T04:31:16;12.10;99.90
21123;DHT22;10719;48.130;11.630;2022-10-29T04:33:42;12.10;99.90
21123;DHT22;10719;48.130;11.630;2022-10-29T04:36:07;12.10;99.90
21123;DHT22;10719;48.130;11.630;2022-10-29T04:38:33;12.10;99.90
21123;DHT22;10719;48.130;11.630;2022-10-29T04:41:00;12.10;99.90
21123;DHT22;10719;48.130;11.630;2022-10-29T04:43:27;12.20;99.90
21123;DHT22;10719;48.130;11.630;2022-10-29T04:45:54;12.20;99.90
21123;DHT22;10719;48.130;11.630;2022-10-29T04:48:20;12.30;99.90
21123;DHT22;10719;48.130;11.630;2022-10-29T04:50:46;12.30;99.90
21123;DHT22;10719;48.130;11.630;2022-10-29T04:53:13;12.30;99.90
21123;DHT22;10719;48.130;11.630;2022-10-29T04:55:39;12.30;99.90
21123;DHT22;10719;48.130;11.630;2022-10-29T04:58:05;12.30;99.90
21123;DHT22;10719;48.130;11.630;2022-10-29T05:00:31;12.30;99.90
21123;DHT22;10719;48.130;11.630;2022-10-29T05:02:57;12.30;99.90
21123;DHT22;10719;48.130;11.630;2022-10-29T05:05:23;12.30;99.90
21123;DHT22;10719;48.130;11.630;2022-10-29T05:07:48;12.30;99.90
21123;DHT22;10719;48.130;11.630;2022-10-29T05:10:20;12.30;99.90
21123;DHT22;10719;48.130;11.630;2022-10-29T05:12:45;12.30;99.90
21123;DHT22;10719;48.130;11.630;2022-10-29T05:15:11;12.40;99.90
21123;DHT22;10719;48.130;11.630;2022-10-29T05:17:37;12.40;99.90
21123;DHT22;10719;48.130;11.630;2022-10-29T05:20:05;12.40;99.90
21123;DHT22;10719;48.130;11.630;2022-10-29T05:22:31;12.50;99.90
21123;DHT22;10719;48.130;11.630;2022-10-29T05:24:57;12.50;99.90
21123;DHT22;10719;48.130;11.630;2022-10-29T05:27:22;12.40;99.90
21123;DHT22;10719;48.130;11.630;2022-10-29T05:29:48;12.40;99.90
21123;DHT22;10719;48.130;11.630;2022-10-29T05:32:13;12.40;99.90
21123;DHT22;10719;48.130;11.630;2022-10-29T05:34:39;12.30;99.90
21123;DHT22;10719;48.130;11.630;2022-10-29T05:37:04;12.30;99.90
21123;DHT22;10719;48.130;11.630;2022-10-29T05:39:30;12.30;99.90
21123;DHT22;10719;48.130;11.630;2022-10-29T05:41:55;12.30;99.90
21123;DHT22;10719;48.130;11.630;2022-10-29T05:44:21;12.30;99.90
21123;DHT22;10719;48.130;11.630;2022-10-29T05:46:49;12.30;99.90
21123;DHT22;10719;48.130;11.630;2022-10-29T05:49:15;12.30;99.90
21123;DHT22;10719;48.130;11.630;2022-10-29T05:51:40;12.30;99.90
21123;DHT22;10719;48.130;11.630;2022-10-29T05:54:06;12.30;99.90
21123;DHT22;10719;48.130;11.630;2022-10-29T05:56:32;12.30;99.90
21123;DHT22;10719;48.130;11.630;2022-10-29T05:58:57;12.30;99.90
21123;DHT22;10719;48.130;11.630;2022-10-29T06:01:23;12.30;99.90
21123;DHT22;10719;48.130;11.630;2022-10-29T06:03:48;12.30;99.90
21123;DHT22;10719;48.130;11.630;2022-10-29T06:06:14;12.30;99.90
21123;DHT22;10719;48.130;11.630;2022-10-29T06:08:39;12.30;99.90
21123;DHT22;10719;48.130;11.630;2022-10-29T06:11:05;12.30;99.90
21123;DHT22;10719;48.130;11.630;2022-10-29T06:13:30;12.30;99.90
21123;DHT22;10719;48.130;11.630;2022-10-29T06:15:58;12.30;99.90
21123;DHT22;10719;48.130;11.630;2022-10-29T06:18:27;12.30;99.90
21123;DHT22;10719;48.130;11.630;2022-10-29T06:20:55;12.30;99.90
21123;DHT22;10719;48.130;11.630;2022-10-29T06:23:21;12.40;99.90
21123;DHT22;10719;48.130;11.630;2022-10-29T06:25:47;12.50;99.90
21123;DHT22;10719;48.130;11.630;2022-10-29T06:28:13;12.50;99.90
21123;DHT22;10719;48.130;11.630;2022-10-29T06:30:45;12.60;99.90
21123;DHT22;10719;48.130;11.630;2022-10-29T06:33:12;12.60;99.90
21123;DHT22;10719;48.130;11.630;2022-10-29T06:35:38;12.70;99.90
21123;DHT22;10719;48.130;11.630;2022-10-29T06:38:03;12.70;99.90
21123;DHT22;10719;48.130;11.630;2022-10-29T06:40:29;12.70;99.90
21123;DHT22;10719;48.130;11.630;2022-10-29T06:43:02;12.60;99.90
21123;DHT22;10719;48.130;11.630;2022-10-29T06:45:28;12.70;99.90
21123;DHT22;10719;48.130;11.630;2022-10-29T06:47:54;12.80;99.90
21123;DHT22;10719;48.130;11.630;2022-10-29T06:50:20;12.80;99.90
21123;DHT22;10719;48.130;11.630;2022-10-29T06:53:04;12.80;99.90
21123;DHT22;10719;48.130;11.630;2022-10-29T06:55:30;12.90;99.90
21123;DHT22;10719;48.130;11.630;2022-10-29T06:57:57;13.00;99.90
21123;DHT22;10719;48.130;11.630;2022-10-29T07:00:22;13.10;99.90
21123;DHT22;10719;48.130;11.630;2022-10-29T07:02:49;13.10;99.90
21123;DHT22;10719;48.130;11.630;2022-10-29T07:05:14;13.20;99.90
21123;DHT22;10719;48.130;11.630;2022-10-29T07:07:40;13.20;99.90
21123;DHT22;10719;48.130;11.630;2022-10-29T07:10:06;13.20;99.90
21123;DHT22;10719;48.130;11.630;2022-10-29T07:12:31;13.30;99.90
21123;DHT22;10719;48.130;11.630;2022-10-29T07:15:03;13.30;99.90
21123;DHT22;10719;48.130;11.630;2022-10-29T07:17:28;13.40;99.90
21123;DHT22;10719;48.130;11.630;2022-10-29T07:19:54;13.60;99.90
21123;DHT22;10719;48.130;11.630;2022-10-29T07:22:20;13.60;99.90
21123;DHT22;10719;48.130;11.630;2022-10-29T07:24:45;13.80;99.90
21123;DHT22;10719;48.130;11.630;2022-10-29T07:27:11;13.90;99.90
21123;DHT22;10719;48.130;11.630;2022-10-29T07:29:37;14.20;99.90
21123;DHT22;10719;48.130;11.630;2022-10-29T07:32:03;14.50;99.90
21123;DHT22;10719;48.130;11.630;2022-10-29T07:34:28;14.70;99.90
21123;DHT22;10719;48.130;11.630;2022-10-29T07:36:54;15.00;99.90
21123;DHT22;10719;48.130;11.630;2022-10-29T07:39:19;15.20;99.90
21123;DHT22;10719;48.130;11.630;2022-10-29T07:41:45;15.30;99.90
21123;DHT22;10719;48.130;11.630;2022-10-29T07:44:11;15.50;99.90
21123;DHT22;10719;48.130;11.630;2022-10-29T07:46:36;15.70;99.90
21123;DHT22;10719;48.130;11.630;2022-10-29T07:49:02;15.80;99.90
21123;DHT22;10719;48.130;11.630;2022-10-29T07:51:28;15.80;99.90
21123;DHT22;10719;48.130;11.630;2022-10-29T07:53:53;16.00;99.90
21123;DHT22;10719;48.130;11.630;2022-10-29T07:56:19;16.20;99.90
21123;DHT22;10719;48.130;11.630;2022-10-29T07:58:44;16.20;99.90
21123;DHT22;10719;48.130;11.630;2022-10-29T08:01:10;16.20;99.90
21123;DHT22;10719;48.130;11.630;2022-10-29T08:03:36;16.40;99.90
21123;DHT22;10719;48.130;11.630;2022-10-29T08:06:01;16.50;99.90
21123;DHT22;10719;48.130;11.630;2022-10-29T08:08:27;16.40;99.90
21123;DHT22;10719;48.130;11.630;2022-10-29T08:10:58;16.50;99.90
21123;DHT22;10719;48.130;11.630;2022-10-29T08:13:24;16.70;99.90
21123;DHT22;10719;48.130;11.630;2022-10-29T08:15:50;16.70;99.90
21123;DHT22;10719;48.130;11.630;2022-10-29T08:18:16;16.80;99.90
21123;DHT22;10719;48.130;11.630;2022-10-29T08:20:42;16.90;99.90
21123;DHT22;10719;48.130;11.630;2022-10-29T08:23:08;17.00;99.90
21123;DHT22;10719;48.130;11.630;2022-10-29T08:25:34;16.90;99.90
21123;DHT22;10719;48.130;11.630;2022-10-29T08:28:05;17.00;99.90
21123;DHT22;10719;48.130;11.630;2022-10-29T08:30:31;17.10;99.90
21123;DHT22;10719;48.130;11.630;2022-10-29T08:32:57;17.10;99.90
21123;DHT22;10719;48.130;11.630;2022-10-29T08:35:23;17.10;99.90
21123;DHT22;10719;48.130;11.630;2022-10-29T08:37:48;17.30;99.90
21123;DHT22;10719;48.130;11.630;2022-10-29T08:43:24;17.50;99.90
21123;DHT22;10719;48.130;11.630;2022-10-29T08:45:54;17.60;99.90
21123;DHT22;10719;48.130;11.630;2022-10-29T08:48:40;17.60;99.90
21123;DHT22;10719;48.130;11.630;2022-10-29T08:53:46;17.60;99.90
21123;DHT22;10719;48.130;11.630;2022-10-29T08:56:24;17.80;99.90
21123;DHT22;10719;48.130;11.630;2022-10-29T09:01:29;18.00;99.90
21123;DHT22;10719;48.130;11.630;2022-10-29T09:03:55;18.10;99.90
21123;DHT22;10719;48.130;11.630;2022-10-29T09:06:36;18.20;99.90
21123;DHT22;10719;48.130;11.630;2022-10-29T09:09:16;18.40;99.90
21123;DHT22;10719;48.130;11.630;2022-10-29T09:12:12;18.50;99.90
21123;DHT22;10719;48.130;11.630;2022-10-29T09:20:29;18.90;99.90
21123;DHT22;10719;48.130;11.630;2022-10-29T09:23:04;19.10;99.90
21123;DHT22;10719;48.130;11.630;2022-10-29T09:25:52;19.20;99.90
21123;DHT22;10719;48.130;11.630;2022-10-29T09:33:44;19.90;99.90
21123;DHT22;10719;48.130;11.630;2022-10-29T09:36:15;20.00;99.90
21123;DHT22;10719;48.130;11.630;2022-10-29T09:39:32;20.30;99.90
21123;DHT22;10719;48.130;11.630;2022-10-29T09:41:33;20.70;99.90
21123;DHT22;10719;48.130;11.630;2022-10-29T09:47:18;21.10;99.90
21123;DHT22;10719;48.130;11.630;2022-10-29T09:50:52;21.40;99.90
21123;DHT22;10719;48.130;11.630;2022-10-29T09:52:49;21.80;99.90
21123;DHT22;10719;48.130;11.630;2022-10-29T09:55:23;23.10;99.90
21123;DHT22;10719;48.130;11.630;2022-10-29T09:57:50;24.90;99.90
21123;DHT22;10719;48.130;11.630;2022-10-29T10:00:20;26.20;99.90
21123;DHT22;10719;48.130;11.630;2022-10-29T10:05:34;26.80;99.90
21123;DHT22;10719;48.130;11.630;2022-10-29T10:08:12;27.10;99.90
21123;DHT22;10719;48.130;11.630;2022-10-29T10:10:58;28.10;99.90
21123;DHT22;10719;48.130;11.630;2022-10-29T10:13:36;28.70;99.90
21123;DHT22;10719;48.130;11.630;2022-10-29T10:16:04;29.00;99.90
21123;DHT22;10719;48.130;11.630;2022-10-29T10:21:14;29.60;99.90
21123;DHT22;10719;48.130;11.630;2022-10-29T10:23:49;30.00;99.90
21123;DHT22;10719;48.130;11.630;2022-10-29T10:29:10;30.00;99.90
21123;DHT22;10719;48.130;11.630;2022-10-29T10:34:23;31.10;99.90
21123;DHT22;10719;48.130;11.630;2022-10-29T10:37:01;30.80;99.90
21123;DHT22;10719;48.130;11.630;2022-10-29T10:39:30;30.80;99.90
21123;DHT22;10719;48.130;11.630;2022-10-29T10:41:59;30.60;99.90
21123;DHT22;10719;48.130;11.630;2022-10-29T10:44:26;30.20;99.90
21123;DHT22;10719;48.130;11.630;2022-10-29T10:46:54;29.70;99.90
21123;DHT22;10719;48.130;11.630;2022-10-29T10:49:28;28.90;99.90
21123;DHT22;10719;48.130;11.630;2022-10-29T10:51:56;27.90;99.90
21123;DHT22;10719;48.130;11.630;2022-10-29T10:54:38;27.70;99.90
21123;DHT22;10719;48.130;11.630;2022-10-29T11:04:50;29.80;99.90
21123;DHT22;10719;48.130;11.630;2022-10-29T11:07:21;29.80;99.90
21123;DHT22;10719;48.130;11.630;2022-10-29T11:09:50;30.20;99.90
21123;DHT22;10719;48.130;11.630;2022-10-29T11:12:31;29.60;99.90
21123;DHT22;10719;48.130;11.630;2022-10-29T11:15:17;29.90;99.90
21123;DHT22;10719;48.130;11.630;2022-10-29T11:18:21;29.10;99.90
21123;DHT22;10719;48.130;11.630;2022-10-29T11:20:39;29.40;99.90
21123;DHT22;10719;48.130;11.630;2022-10-29T11:26:19;29.20;99.90
21123;DHT22;10719;48.130;11.630;2022-10-29T11:28:53;28.70;99.90
21123;DHT22;10719;48.130;11.630;2022-10-29T11:31:26;28.60;99.90
21123;DHT22;10719;48.130;11.630;2022-10-29T11:34:09;28.70;99.90
21123;DHT22;10719;48.130;11.630;2022-10-29T11:36:40;29.20;99.90
21123;DHT22;10719;48.130;11.630;2022-10-29T11:39:44;29.90;99.90
21123;DHT22;10719;48.130;11.630;2022-10-29T11:42:02;30.10;99.90
21123;DHT22;10719;48.130;11.630;2022-10-29T11:44:28;30.10;99.90
21123;DHT22;10719;48.130;11.630;2022-10-29T11:52:33;29.50;99.90
21123;DHT22;10719;48.130;11.630;2022-10-29T11:58:06;29.70;99.90
21123;DHT22;10719;48.130;11.630;2022-10-29T12:00:55;29.80;99.90
21123;DHT22;10719;48.130;11.630;2022-10-29T12:03:25;29.80;99.90
21123;DHT22;10719;48.130;11.630;2022-10-29T12:12:01;31.00;99.90
21123;DHT22;10719;48.130;11.630;2022-10-29T12:14:46;30.30;99.90
21123;DHT22;10719;48.130;11.630;2022-10-29T12:17:39;30.20;99.90
21123;DHT22;10719;48.130;11.630;2022-10-29T12:29:04;31.80;99.90
21123;DHT22;10719;48.130;11.630;2022-10-29T12:37:16;32.30;99.90
21123;DHT22;10719;48.130;11.630;2022-10-29T12:39:51;32.40;99.90
21123;DHT22;10719;48.130;11.630;2022-10-29T12:42:27;32.00;99.90
21123;DHT22;10719;48.130;11.630;2022-10-29T12:47:53;32.50;99.90
21123;DHT22;10719;48.130;11.630;2022-10-29T12:54:04;32.50;99.90
21123;DHT22;10719;48.130;11.630;2022-10-29T12:56:21;33.30;99.90
21123;DHT22;10719;48.130;11.630;2022-10-29T12:58:49;33.00;99.90
21123;DHT22;10719;48.130;11.630;2022-10-29T13:09:18;32.30;99.90
21123;DHT22;10719;48.130;11.630;2022-10-29T13:11:52;32.10;99.90
21123;DHT22;10719;48.130;11.630;2022-10-29T13:14:43;32.30;99.90
21123;DHT22;10719;48.130;11.630;2022-10-29T13:17:30;32.20;99.90
21123;DHT22;10719;48.130;11.630;2022-10-29T13:20:03;32.20;99.90
21123;DHT22;10719;48.130;11.630;2022-10-29T13:30:49;32.30;99.90
21123;DHT22;10719;48.130;11.630;2022-10-29T13:41:23;30.40;99.90
21123;DHT22;10719;48.130;11.630;2022-10-29T13:43:53;29.90;99.90
21123;DHT22;10719;48.130;11.630;2022-10-29T13:49:45;28.20;99.90
21123;DHT22;10719;48.130;11.630;2022-10-29T13:52:20;27.10;99.90
21123;DHT22;10719;48.130;11.630;2022-10-29T13:54:58;26.60;99.90
21123;DHT22;10719;48.130;11.630;2022-10-29T14:03:01;25.50;99.90
21123;DHT22;10719;48.130;11.630;2022-10-29T14:05:38;25.10;99.90
21123;DHT22;10719;48.130;11.630;2022-10-29T14:08:11;25.00;99.90
21123;DHT22;10719;48.130;11.630;2022-10-29T14:13:33;24.20;99.90
21123;DHT22;10719;48.130;11.630;2022-10-29T14:18:50;24.20;99.90
21123;DHT22;10719;48.130;11.630;2022-10-29T14:21:20;23.90;99.90
21123;DHT22;10719;48.130;11.630;2022-10-29T14:26:32;23.80;99.90
21123;DHT22;10719;48.130;11.630;2022-10-29T14:29:20;23.60;99.90
21123;DHT22;10719;48.130;11.630;2022-10-29T14:31:56;23.40;99.90
21123;DHT22;10719;48.130;11.630;2022-10-29T14:34:28;23.30;99.90
21123;DHT22;10719;48.130;11.630;2022-10-29T14:37:03;23.20;99.90
21123;DHT22;10719;48.130;11.630;2022-10-29T14:39:37;23.00;99.90
21123;DHT22;10719;48.130;11.630;2022-10-29T14:42:12;22.90;99.90
21123;DHT22;10719;48.130;11.630;2022-10-29T14:44:40;22.80;99.90
21123;DHT22;10719;48.130;11.630;2022-10-29T14:47:26;22.80;99.90
21123;DHT22;10719;48.130;11.630;2022-10-29T14:49:54;22.70;99.90
21123;DHT22;10719;48.130;11.630;2022-10-29T14:52:34;22.50;99.90
21123;DHT22;10719;48.130;11.630;2022-10-29T14:55:15;22.40;99.90
21123;DHT22;10719;48.130;11.630;2022-10-29T14:57:46;22.30;99.90
21123;DHT22;10719;48.130;11.630;2022-10-29T15:00:27;22.20;99.90
21123;DHT22;10719;48.130;11.630;2022-10-29T15:02:54;22.10;99.90
21123;DHT22;10719;48.130;11.630;2022-10-29T15:05:31;21.90;99.90
21123;DHT22;10719;48.130;11.630;2022-10-29T15:10:51;21.70;99.90
21123;DHT22;10719;48.130;11.630;2022-10-29T15:16:07;21.30;99.90
21123;DHT22;10719;48.130;11.630;2022-10-29T15:18:35;21.30;99.90
21123;DHT22;10719;48.130;11.630;2022-10-29T15:21:02;21.10;99.90
21123;DHT22;10719;48.130;11.630;2022-10-29T15:23:41;21.00;99.90
21123;DHT22;10719;48.130;11.630;2022-10-29T15:26:12;20.90;99.90
21123;DHT22;10719;48.130;11.630;2022-10-29T15:28:40;20.80;99.90
21123;DHT22;10719;48.130;11.630;2022-10-29T15:31:21;20.60;99.90
21123;DHT22;10719;48.130;11.630;2022-10-29T15:33:52;20.50;99.90
21123;DHT22;10719;48.130;11.630;2022-10-29T15:36:18;20.40;99.90
21123;DHT22;10719;48.130;11.630;2022-10-29T15:43:54;19.90;99.90
21123;DHT22;10719;48.130;11.630;2022-10-29T15:46:25;19.80;99.90
21123;DHT22;10719;48.130;11.630;2022-10-29T15:48:51;19.70;99.90
21123;DHT22;10719;48.130;11.630;2022-10-29T15:51:18;19.60;99.90
21123;DHT22;10719;48.130;11.630;2022-10-29T15:53:45;19.50;99.90
21123;DHT22;10719;48.130;11.630;2022-10-29T15:56:14;19.30;99.90
21123;DHT22;10719;48.130;11.630;2022-10-29T15:58:39;19.20;99.90
21123;DHT22;10719;48.130;11.630;2022-10-29T16:01:05;19.00;99.90
21123;DHT22;10719;48.130;11.630;2022-10-29T16:03:34;18.90;99.90
21123;DHT22;10719;48.130;11.630;2022-10-29T16:06:03;18.80;99.90
21123;DHT22;10719;48.130;11.630;2022-10-29T16:08:30;18.70;99.90
21123;DHT22;10719;48.130;11.630;2022-10-29T16:10:58;18.60;99.90
21123;DHT22;10719;48.130;11.630;2022-10-29T16:13:25;18.50;99.90
21123;DHT22;10719;48.130;11.630;2022-10-29T16:15:51;18.50;99.90
21123;DHT22;10719;48.130;11.630;2022-10-29T16:18:16;18.40;99.90
21123;DHT22;10719;48.130;11.630;2022-10-29T16:20:42;18.30;99.90
21123;DHT22;10719;48.130;11.630;2022-10-29T16:23:09;18.20;99.90
21123;DHT22;10719;48.130;11.630;2022-10-29T16:25:35;18.10;99.90
21123;DHT22;10719;48.130;11.630;2022-10-29T16:28:01;17.90;99.90
21123;DHT22;10719;48.130;11.630;2022-10-29T16:30:26;17.90;99.90
21123;DHT22;10719;48.130;11.630;2022-10-29T16:32:53;17.80;99.90
21123;DHT22;10719;48.130;11.630;2022-10-29T16:35:23;17.70;99.90
21123;DHT22;10719;48.130;11.630;2022-10-29T16:37:51;17.60;99.90
21123;DHT22;10719;48.130;11.630;2022-10-29T16:40:18;17.50;99.90
21123;DHT22;10719;48.130;11.630;2022-10-29T16:42:44;17.40;99.90
21123;DHT22;10719;48.130;11.630;2022-10-29T16:45:22;17.30;99.90
21123;DHT22;10719;48.130;11.630;2022-10-29T16:47:48;17.30;99.90
21123;DHT22;10719;48.130;11.630;2022-10-29T16:50:22;17.20;99.90
21123;DHT22;10719;48.130;11.630;2022-10-29T16:53:12;17.20;99.90
21123;DHT22;10719;48.130;11.630;2022-10-29T16:55:39;17.10;99.90
21123;DHT22;10719;48.130;11.630;2022-10-29T16:58:10;17.00;99.90
21123;DHT22;10719;48.130;11.630;2022-10-29T17:00:36;17.00;99.90
21123;DHT22;10719;48.130;11.630;2022-10-29T17:03:03;17.00;99.90
21123;DHT22;10719;48.130;11.630;2022-10-29T17:05:29;17.00;99.90
21123;DHT22;10719;48.130;11.630;2022-10-29T17:07:55;16.90;99.90
21123;DHT22;10719;48.130;11.630;2022-10-29T17:10:21;16.90;99.90
21123;DHT22;10719;48.130;11.630;2022-10-29T17:12:47;16.80;99.90
21123;DHT22;10719;48.130;11.630;2022-10-29T17:15:13;16.70;99.90
21123;DHT22;10719;48.130;11.630;2022-10-29T17:17:39;16.60;99.90
21123;DHT22;10719;48.130;11.630;2022-10-29T17:20:05;16.50;99.90
21123;DHT22;10719;48.130;11.630;2022-10-29T17:22:31;16.50;99.90
21123;DHT22;10719;48.130;11.630;2022-10-29T17:24:56;16.40;99.90
21123;DHT22;10719;48.130;11.630;2022-10-29T17:27:22;16.30;99.90
21123;DHT22;10719;48.130;11.630;2022-10-29T17:29:48;16.20;99.90
21123;DHT22;10719;48.130;11.630;2022-10-29T17:32:13;16.20;99.90
21123;DHT22;10719;48.130;11.630;2022-10-29T17:34:39;16.10;99.90
21123;DHT22;10719;48.130;11.630;2022-10-29T17:37:05;16.10;99.90
21123;DHT22;10719;48.130;11.630;2022-10-29T17:39:31;16.10;99.90
21123;DHT22;10719;48.130;11.630;2022-10-29T17:41:56;16.00;99.90
21123;DHT22;10719;48.130;11.630;2022-10-29T17:44:22;16.00;99.90
21123;DHT22;10719;48.130;11.630;2022-10-29T17:46:47;16.00;99.90
21123;DHT22;10719;48.130;11.630;2022-10-29T17:49:13;15.90;99.90
21123;DHT22;10719;48.130;11.630;2022-10-29T17:51:39;15.90;99.90
21123;DHT22;10719;48.130;11.630;2022-10-29T17:54:04;15.90;99.90
21123;DHT22;10719;48.130;11.630;2022-10-29T17:56:30;15.80;99.90
21123;DHT22;10719;48.130;11.630;2022-10-29T17:58:56;15.80;99.90
21123;DHT22;10719;48.130;11.630;2022-10-29T18:01:22;15.70;99.90
21123;DHT22;10719;48.130;11.630;2022-10-29T18:03:48;15.70;99.90